createdAt,value
2018-01-26T00:00:23.960Z,139.90
2018-01-26T00:02:51.564Z,147.68
2018-01-26T00:05:19.112Z,154.63
2018-01-26T00:07:46.785Z,151.15
2018-01-26T00:10:14.345Z,160.60
2018-01-26T00:12:42.144Z,150.15
2018-01-26T00:15:09.813Z,151.10
2018-01-26T00:17:37.330Z,151.25
2018-01-26T00:20:05.096Z,161.12
2018-01-26T00:22:33.684Z,146.20
2018-01-26T00:25:01.278Z,144.15
2018-01-26T00:27:28.828Z,138.93
2018-01-26T00:29:56.496Z,139.18
2018-01-26T00:32:24.152Z,135.45
2018-01-26T00:34:52.013Z,135.90
2018-01-26T00:37:19.557Z,131.23
2018-01-26T00:39:47.232Z,131.45
2018-01-26T00:42:14.762Z,130.30
2018-01-26T00:44:42.286Z,128.75
2018-01-26T00:47:09.939Z,128.30
2018-01-26T00:49:37.722Z,134.63
2018-01-26T00:52:05.253Z,139.40
2018-01-26T00:54:33.099Z,137.18
2018-01-26T00:57:00.609Z,156.52
2018-01-26T00:59:28.123Z,153.57
2018-01-26T01:01:55.784Z,145.75
2018-01-26T01:04:23.300Z,134.02
2018-01-26T01:06:51.052Z,139.00
2018-01-26T01:09:18.770Z,133.63
2018-01-26T01:11:46.392Z,133.70
2018-01-26T01:14:14.198Z,130.77
2018-01-26T01:16:41.887Z,129.68
2018-01-26T01:19:09.410Z,134.50
2018-01-26T01:21:37.216Z,128.52
2018-01-26T01:24:04.878Z,131.02
2018-01-26T01:26:32.646Z,127.90
2018-01-26T01:29:01.412Z,129.15
2018-01-26T01:31:29.096Z,125.95
2018-01-26T01:33:56.870Z,122.00
2018-01-26T01:36:24.418Z,124.32
2018-01-26T01:38:52.092Z,123.60
2018-01-26T01:41:19.845Z,121.75
2018-01-26T01:43:47.598Z,115.37
2018-01-26T01:46:15.289Z,110.12
2018-01-26T01:48:43.126Z,107.25
2018-01-26T01:51:10.661Z,105.80
2018-01-26T01:53:38.314Z,92.35
2018-01-26T01:56:05.829Z,87.75
2018-01-26T01:58:33.582Z,84.13
2018-01-26T02:01:01.280Z,81.85
2018-01-26T02:03:29.037Z,82.90
2018-01-26T02:05:57.035Z,84.35
2018-01-26T02:08:24.580Z,82.93
2018-01-26T02:10:52.321Z,85.20
2018-01-26T02:13:19.871Z,81.35
2018-01-26T02:15:47.471Z,81.68
2018-01-26T02:18:15.402Z,82.10
2018-01-26T02:20:42.942Z,81.45
2018-01-26T02:23:10.506Z,75.45
2018-01-26T02:25:38.041Z,82.65
2018-01-26T02:28:05.581Z,78.55
2018-01-26T02:30:33.157Z,82.35
2018-01-26T02:33:00.692Z,83.07
2018-01-26T02:35:28.205Z,76.05
2018-01-26T02:37:55.769Z,84.32
2018-01-26T02:40:23.294Z,86.40
2018-01-26T02:42:50.856Z,82.25
2018-01-26T02:45:18.513Z,83.45
2018-01-26T02:47:46.054Z,85.97
2018-01-26T02:50:13.584Z,81.75
2018-01-26T02:52:41.246Z,88.05
2018-01-26T02:55:09.040Z,86.85
2018-01-26T02:57:36.588Z,94.60
2018-01-26T03:00:07.420Z,88.40
2018-01-26T03:02:35.004Z,93.10
2018-01-26T03:05:02.534Z,92.55
2018-01-26T03:07:30.187Z,91.57
2018-01-26T03:09:57.708Z,96.53
2018-01-26T03:12:25.295Z,93.82
2018-01-26T03:14:52.946Z,98.93
2018-01-26T03:17:20.709Z,93.93
2018-01-26T03:19:48.263Z,91.43
2018-01-26T03:22:15.979Z,105.60
2018-01-26T03:24:43.509Z,111.85
2018-01-26T03:27:11.044Z,108.72
2018-01-26T03:29:38.717Z,114.78
2018-01-26T03:32:06.377Z,110.90
2018-01-26T03:34:34.129Z,121.72
2018-01-26T03:37:01.927Z,116.80
2018-01-26T03:39:29.600Z,132.45
2018-01-26T03:41:57.133Z,130.57
2018-01-26T03:44:24.708Z,142.75
2018-01-26T03:46:52.385Z,141.95
2018-01-26T03:49:20.152Z,132.48
2018-01-26T03:51:47.688Z,137.75
2018-01-26T03:54:15.359Z,144.62
2018-01-26T03:56:43.149Z,156.87
2018-01-26T03:59:10.720Z,144.43
2018-01-26T04:01:38.420Z,152.98
2018-01-26T04:04:06.236Z,158.68
2018-01-26T04:06:33.798Z,152.68
2018-01-26T04:09:01.464Z,167.65
2018-01-26T04:11:28.999Z,150.05
2018-01-26T04:13:56.508Z,154.35
2018-01-26T04:16:24.198Z,147.68
2018-01-26T04:18:52.119Z,145.98
2018-01-26T04:21:19.888Z,151.73
2018-01-26T04:23:47.572Z,143.62
2018-01-26T04:26:15.088Z,146.48
2018-01-26T04:28:42.661Z,149.82
2018-01-26T04:31:10.381Z,142.85
2018-01-26T04:33:38.155Z,132.55
2018-01-26T04:36:05.688Z,134.63
2018-01-26T04:38:33.344Z,114.72
2018-01-26T04:41:00.865Z,108.37
2018-01-26T04:43:28.406Z,112.15
2018-01-26T04:45:56.081Z,116.80
2018-01-26T04:48:23.624Z,113.97
2018-01-26T04:50:51.417Z,114.93
2018-01-26T04:53:19.991Z,117.72
2018-01-26T04:55:48.417Z,119.28
2018-01-26T04:58:16.233Z,110.30
2018-01-26T05:00:43.903Z,112.97
2018-01-26T05:03:11.556Z,115.07
2018-01-26T05:05:39.108Z,114.20
2018-01-26T05:08:06.796Z,119.45
2018-01-26T05:10:34.341Z,117.28
2018-01-26T05:13:02.343Z,122.80
2018-01-26T05:15:30.023Z,135.90
2018-01-26T05:17:57.543Z,140.43
2018-01-26T05:20:25.316Z,131.02
2018-01-26T05:22:52.975Z,135.65
2018-01-26T05:25:20.520Z,141.07
2018-01-26T05:27:48.059Z,145.57
2018-01-26T05:30:15.719Z,147.10
2018-01-26T05:32:43.263Z,140.40
2018-01-26T05:35:11.073Z,137.95
2018-01-26T05:37:38.752Z,126.43
2018-01-26T05:40:06.286Z,130.68
2018-01-26T05:42:33.809Z,122.75
2018-01-26T05:45:01.581Z,119.90
2018-01-26T05:47:29.150Z,111.45
2018-01-26T05:49:56.964Z,117.40
2018-01-26T05:52:24.607Z,120.37
2018-01-26T05:54:52.183Z,117.05
2018-01-26T05:57:19.940Z,122.60
2018-01-26T05:59:47.606Z,122.43
2018-01-26T06:02:15.276Z,119.30
2018-01-26T06:04:42.826Z,116.97
2018-01-26T06:07:10.363Z,116.68
2018-01-26T06:09:38.150Z,117.35
2018-01-26T06:12:05.698Z,120.20
2018-01-26T06:14:33.258Z,121.50
2018-01-26T06:17:00.946Z,129.52
2018-01-26T06:19:28.474Z,131.23
2018-01-26T06:21:56.031Z,129.20
2018-01-26T06:24:23.734Z,134.37
2018-01-26T06:26:51.248Z,138.75
2018-01-26T06:29:19.013Z,151.90
2018-01-26T06:31:46.718Z,142.70
2018-01-26T06:34:14.263Z,145.12
2018-01-26T06:36:42.132Z,148.23
2018-01-26T06:39:09.834Z,149.12
2018-01-26T06:41:37.358Z,126.05
2018-01-26T06:44:04.929Z,125.80
2018-01-26T06:46:32.604Z,122.65
2018-01-26T06:49:00.136Z,109.45
2018-01-26T06:51:27.741Z,106.20
2018-01-26T06:53:55.390Z,98.60
2018-01-26T06:56:22.922Z,95.07
2018-01-26T06:58:50.481Z,94.53
2018-01-26T07:01:18.136Z,128.48
2018-01-26T07:03:45.669Z,105.70
2018-01-26T07:06:13.248Z,102.12
2018-01-26T07:08:40.918Z,98.43
2018-01-26T07:11:08.428Z,91.95
2018-01-26T07:13:35.963Z,91.07
2018-01-26T07:16:03.633Z,88.25
2018-01-26T07:18:31.181Z,85.97
2018-01-26T07:20:58.749Z,93.75
2018-01-26T07:23:26.396Z,88.57
2018-01-26T07:25:54.178Z,81.47
2018-01-26T07:28:21.699Z,91.07
2018-01-26T07:30:49.383Z,88.68
2018-01-26T07:33:16.910Z,84.75
2018-01-26T07:35:44.455Z,94.55
2018-01-26T07:38:12.134Z,99.50
2018-01-26T07:40:39.661Z,102.10
2018-01-26T07:43:07.186Z,87.63
2018-01-26T07:45:34.902Z,85.23
2018-01-26T07:48:02.414Z,86.47
2018-01-26T07:50:29.952Z,97.93
2018-01-26T07:52:57.596Z,91.80
2018-01-26T07:55:25.459Z,95.17
2018-01-26T07:57:52.986Z,91.10
2018-01-26T08:00:20.726Z,138.93
2018-01-26T08:02:48.542Z,119.63
2018-01-26T08:05:16.087Z,129.33
2018-01-26T08:07:43.836Z,99.83
2018-01-26T08:10:11.369Z,100.50
2018-01-26T08:12:39.155Z,105.27
2018-01-26T08:15:06.829Z,102.73
2018-01-26T08:17:34.369Z,104.43
2018-01-26T08:20:01.990Z,103.70
2018-01-26T08:22:29.649Z,103.03
2018-01-26T08:24:57.185Z,106.03
2018-01-26T08:27:24.703Z,110.83
2018-01-26T08:29:52.394Z,109.87
2018-01-26T08:32:20.073Z,108.17
2018-01-26T08:34:47.654Z,104.07
2018-01-26T08:37:15.221Z,108.60
2018-01-26T08:39:42.944Z,106.50
2018-01-26T08:42:10.491Z,105.73
2018-01-26T08:44:38.074Z,105.07
2018-01-26T08:47:05.764Z,109.00
2018-01-26T08:49:33.319Z,105.83
2018-01-26T08:52:01.170Z,108.90
2018-01-26T08:54:28.877Z,108.63
2018-01-26T08:56:56.432Z,109.63
2018-01-26T08:59:23.978Z,106.73
2018-01-26T09:01:51.760Z,103.20
2018-01-26T09:04:19.305Z,105.53
2018-01-26T09:06:47.013Z,105.60
2018-01-26T09:09:14.766Z,104.90
2018-01-26T09:11:42.315Z,107.30
2018-01-26T09:14:09.854Z,105.97
2018-01-26T09:16:37.520Z,107.87
2018-01-26T09:19:05.054Z,111.07
2018-01-26T09:21:32.844Z,106.33
2018-01-26T09:24:00.521Z,117.47
2018-01-26T09:26:28.061Z,119.53
2018-01-26T09:28:55.604Z,117.83
2018-01-26T09:31:23.260Z,117.53
2018-01-26T09:33:50.817Z,121.97
2018-01-26T09:36:18.572Z,120.50
2018-01-26T09:38:46.249Z,126.73
2018-01-26T09:41:13.775Z,118.30
2018-01-26T09:43:41.355Z,122.37
2018-01-26T09:46:09.057Z,122.40
2018-01-26T09:48:36.919Z,124.50
2018-01-26T09:51:04.429Z,122.77
2018-01-26T09:53:32.096Z,123.60
2018-01-26T09:55:59.980Z,124.00
2018-01-26T09:58:27.504Z,121.83
2018-01-26T10:00:55.294Z,123.73
2018-01-26T10:03:23.088Z,119.37
2018-01-26T10:05:50.639Z,125.87
2018-01-26T10:08:18.294Z,125.07
2018-01-26T10:10:45.837Z,124.57
2018-01-26T10:13:13.614Z,130.07
2018-01-26T10:15:41.312Z,128.73
2018-01-26T10:18:08.892Z,122.80
2018-01-26T10:20:36.467Z,122.33
2018-01-26T10:23:04.169Z,123.33
2018-01-26T10:25:31.721Z,113.77
2018-01-26T10:27:59.248Z,115.00
2018-01-26T10:30:26.915Z,119.13
2018-01-26T10:32:54.500Z,116.20
2018-01-26T10:35:22.056Z,111.47
2018-01-26T10:37:49.741Z,107.63
2018-01-26T10:40:17.289Z,115.60
2018-01-26T10:42:44.849Z,110.20
2018-01-26T10:45:12.527Z,117.47
2018-01-26T10:47:40.120Z,115.37
2018-01-26T10:50:07.688Z,109.50
2018-01-26T10:52:35.392Z,120.47
2018-01-26T10:55:02.945Z,110.57
2018-01-26T10:57:30.508Z,111.40
2018-01-26T10:59:58.169Z,117.73
2018-01-26T11:02:25.849Z,113.90
2018-01-26T11:04:53.389Z,116.37
2018-01-26T11:07:20.914Z,115.30
2018-01-26T11:09:48.601Z,120.70
2018-01-26T11:12:16.175Z,116.00
2018-01-26T11:14:43.769Z,116.80
2018-01-26T11:17:11.449Z,119.93
2018-01-26T11:19:38.988Z,121.87
2018-01-26T11:22:06.775Z,118.10
2018-01-26T11:24:34.444Z,120.50
2018-01-26T11:27:01.956Z,115.27
2018-01-26T11:29:29.720Z,119.30
2018-01-26T11:31:58.235Z,117.30
2018-01-26T11:34:25.778Z,110.87
2018-01-26T11:36:53.533Z,106.87
2018-01-26T11:39:21.223Z,105.73
2018-01-26T11:41:49.048Z,104.20
2018-01-26T11:44:16.573Z,98.90
2018-01-26T11:46:44.214Z,94.00
2018-01-26T11:49:12.633Z,91.80
2018-01-26T11:51:40.218Z,86.90
2018-01-26T11:54:07.875Z,85.00
2018-01-26T11:56:35.445Z,85.40
2018-01-26T11:59:02.972Z,82.63
2018-01-26T12:01:30.636Z,85.43
2018-01-26T12:03:58.216Z,85.53
2018-01-26T12:06:25.775Z,84.57
2018-01-26T12:08:53.913Z,85.67
2018-01-26T12:11:21.461Z,85.03
2018-01-26T12:13:48.981Z,85.87
2018-01-26T12:16:16.672Z,84.70
2018-01-26T12:18:44.230Z,84.27
2018-01-26T12:21:12.033Z,88.77
2018-01-26T12:23:39.684Z,87.33
2018-01-26T12:26:07.244Z,86.20
2018-01-26T12:28:34.831Z,86.47
2018-01-26T12:31:02.564Z,85.20
2018-01-26T12:33:30.157Z,84.80
2018-01-26T12:35:57.676Z,84.17
2018-01-26T12:38:25.356Z,81.30
2018-01-26T12:40:52.906Z,82.87
2018-01-26T12:43:20.490Z,80.03
2018-01-26T12:45:48.192Z,79.30
2018-01-26T12:48:15.756Z,79.03
2018-01-26T12:50:43.290Z,77.80
2018-01-26T12:53:10.971Z,79.30
2018-01-26T12:55:38.768Z,77.80
2018-01-26T12:58:06.373Z,77.73
2018-01-26T13:00:34.050Z,79.03
2018-01-26T13:03:01.590Z,82.90
2018-01-26T13:05:29.122Z,82.40
2018-01-26T13:07:56.848Z,80.60
2018-01-26T13:10:24.432Z,81.90
2018-01-26T13:12:51.970Z,75.60
2018-01-26T13:15:19.634Z,77.03
2018-01-26T13:17:47.228Z,74.90
2018-01-26T13:20:14.787Z,79.20
2018-01-26T13:22:42.477Z,77.40
2018-01-26T13:25:10.256Z,76.73
2018-01-26T13:27:37.789Z,75.77
2018-01-26T13:30:07.501Z,74.80
2018-01-26T13:32:35.029Z,73.37
2018-01-26T13:35:02.570Z,74.60
2018-01-26T13:37:30.241Z,71.63
2018-01-26T13:39:58.417Z,75.77
2018-01-26T13:42:26.232Z,76.67
2018-01-26T13:44:53.908Z,82.43
2018-01-26T13:47:21.450Z,79.87
2018-01-26T13:49:49.086Z,81.80
2018-01-26T13:52:16.736Z,74.70
2018-01-26T13:54:44.729Z,75.40
2018-01-26T13:57:12.481Z,78.60
2018-01-26T13:59:40.562Z,75.53
2018-01-26T14:02:08.265Z,71.20
2018-01-26T14:04:35.858Z,71.97
2018-01-26T14:07:03.368Z,71.77
2018-01-26T14:09:31.077Z,74.40
2018-01-26T14:11:58.649Z,71.67
2018-01-26T14:14:26.191Z,73.83
2018-01-26T14:16:53.870Z,72.00
2018-01-26T14:19:21.439Z,70.67
2018-01-26T14:21:49.559Z,71.77
2018-01-26T14:24:17.281Z,74.57
2018-01-26T14:26:44.805Z,69.50
2018-01-26T14:29:12.332Z,68.53
2018-01-26T14:31:39.874Z,73.37
2018-01-26T14:34:07.404Z,71.00
2018-01-26T14:36:34.980Z,72.13
2018-01-26T14:39:02.626Z,72.00
2018-01-26T14:41:30.189Z,75.27
2018-01-26T14:43:57.712Z,75.30
2018-01-26T14:46:25.304Z,74.00
2018-01-26T14:48:52.857Z,75.17
2018-01-26T14:51:20.765Z,75.40
2018-01-26T14:53:48.335Z,73.80
2018-01-26T14:56:15.916Z,67.63
2018-01-26T14:58:44.189Z,67.70
2018-01-26T15:01:11.741Z,61.70
2018-01-26T15:03:39.439Z,60.17
2018-01-26T15:06:07.710Z,60.30
2018-01-26T15:08:35.401Z,59.27
2018-01-26T15:11:03.027Z,58.00
2018-01-26T15:13:31.005Z,58.37
2018-01-26T15:15:58.726Z,62.83
2018-01-26T15:18:26.540Z,67.67
2018-01-26T15:20:54.067Z,62.17
2018-01-26T15:23:21.739Z,63.47
2018-01-26T15:25:49.367Z,62.10
2018-01-26T15:28:16.945Z,63.78
2018-01-26T15:30:44.660Z,66.80
2018-01-26T15:33:12.222Z,62.55
2018-01-26T15:35:39.797Z,58.28
2018-01-26T15:38:07.475Z,60.65
2018-01-26T15:40:35.012Z,59.25
2018-01-26T15:43:02.559Z,61.28
2018-01-26T15:45:30.292Z,61.13
2018-01-26T15:47:58.104Z,58.97
2018-01-26T15:50:25.744Z,59.85
2018-01-26T15:52:53.533Z,71.50
2018-01-26T15:55:21.087Z,73.80
2018-01-26T15:57:48.638Z,65.35
2018-01-26T16:00:16.396Z,72.28
2018-01-26T16:02:43.948Z,112.82
2018-01-26T16:05:11.488Z,142.57
2018-01-26T16:07:39.179Z,139.57
2018-01-26T16:10:06.973Z,134.43
2018-01-26T16:12:34.543Z,145.75
2018-01-26T16:15:02.250Z,148.20
2018-01-26T16:17:29.782Z,155.82
2018-01-26T16:19:57.310Z,377.62
2018-01-26T16:22:24.977Z,353.02
2018-01-26T16:24:53.511Z,222.12
2018-01-26T16:27:21.528Z,206.65
2018-01-26T16:29:49.241Z,216.18
2018-01-26T16:32:16.942Z,203.50
2018-01-26T16:34:44.536Z,199.40
2018-01-26T16:37:12.311Z,211.70
2018-01-26T16:39:40.008Z,224.32
2018-01-26T16:42:07.915Z,236.10
2018-01-26T16:44:35.453Z,249.55
2018-01-26T16:47:03.154Z,248.77
2018-01-26T16:49:30.712Z,286.80
2018-01-26T16:51:58.379Z,273.23
2018-01-26T16:54:26.040Z,281.45
2018-01-26T16:56:53.621Z,290.77
2018-01-26T16:59:21.209Z,288.08
2018-01-26T17:01:48.892Z,293.30
2018-01-26T17:04:16.403Z,283.45
2018-01-26T17:06:43.972Z,275.62
2018-01-26T17:09:11.649Z,323.75
2018-01-26T17:11:39.248Z,331.33
2018-01-26T17:14:06.787Z,370.83
2018-01-26T17:16:35.280Z,326.02
2018-01-26T17:19:02.884Z,307.60
2018-01-26T17:21:30.444Z,240.77
2018-01-26T17:23:58.142Z,222.65
2018-01-26T17:26:26.685Z,229.20
2018-01-26T17:28:54.589Z,235.32
2018-01-26T17:31:22.352Z,167.68
2018-01-26T17:33:49.972Z,175.27
2018-01-26T17:36:17.548Z,187.15
2018-01-26T17:38:45.228Z,190.95
2018-01-26T17:41:12.749Z,194.87
2018-01-26T17:43:40.560Z,187.95
2018-01-26T17:46:08.248Z,186.45
2018-01-26T17:48:35.841Z,160.52
2018-01-26T17:51:03.401Z,159.45
2018-01-26T17:53:31.129Z,165.23
2018-01-26T17:55:58.676Z,171.50
2018-01-26T17:58:26.895Z,179.98
2018-01-26T18:00:56.617Z,187.18
2018-01-26T18:03:25.089Z,183.73
2018-01-26T18:05:53.292Z,192.62
2018-01-26T18:08:21.654Z,194.40
2018-01-26T18:10:49.303Z,192.85
2018-01-26T18:13:17.887Z,193.98
2018-01-26T18:15:45.598Z,202.30
2018-01-26T18:18:13.655Z,201.75
2018-01-26T18:20:41.297Z,205.35
2018-01-26T18:23:09.010Z,200.10
2018-01-26T18:25:36.542Z,197.62
2018-01-26T18:28:04.092Z,204.23
2018-01-26T18:30:31.765Z,197.30
2018-01-26T18:32:59.311Z,204.10
2018-01-26T18:35:26.858Z,204.55
2018-01-26T18:37:54.721Z,200.32
2018-01-26T18:40:22.254Z,212.05
2018-01-26T18:42:49.824Z,220.32
2018-01-26T18:45:17.786Z,224.77
2018-01-26T18:47:46.093Z,224.50
2018-01-26T18:50:13.634Z,202.95
2018-01-26T18:52:41.594Z,230.82
2018-01-26T18:55:09.345Z,213.12
2018-01-26T18:57:36.953Z,205.65
2018-01-26T19:00:09.256Z,220.35
2018-01-26T19:02:37.775Z,220.20
2018-01-26T19:05:05.649Z,241.27
2018-01-26T19:07:33.380Z,251.00
2018-01-26T19:10:01.197Z,252.77
2018-01-26T19:12:30.297Z,254.20
2018-01-26T19:14:58.021Z,235.23
2018-01-26T19:17:25.792Z,248.45
2018-01-26T19:19:53.389Z,245.35
2018-01-26T19:22:21.091Z,240.80
2018-01-26T19:24:48.952Z,233.68
2018-01-26T19:27:16.594Z,234.35
2018-01-26T19:29:45.186Z,227.25
2018-01-26T19:32:12.968Z,229.23
2018-01-26T19:34:40.627Z,235.20
2018-01-26T19:37:08.247Z,235.15
2018-01-26T19:39:36.546Z,234.37
2018-01-26T19:42:05.065Z,240.15
2018-01-26T19:44:33.222Z,240.95
2018-01-26T19:47:04.469Z,229.77
2018-01-26T19:49:32.583Z,245.02
2018-01-26T19:52:02.373Z,247.35
2018-01-26T19:54:31.944Z,247.52
2018-01-26T19:57:01.085Z,244.15
2018-01-26T19:59:29.721Z,240.60
2018-01-26T20:01:58.240Z,239.02
2018-01-26T20:04:34.007Z,242.45
2018-01-26T20:07:33.497Z,235.10
2018-01-26T20:10:05.094Z,240.45
2018-01-26T20:12:39.174Z,246.68
2018-01-26T20:15:06.839Z,237.43
2018-01-26T20:17:35.503Z,248.00
2018-01-26T20:20:03.270Z,222.82
2018-01-26T20:22:31.127Z,205.87
2018-01-26T20:24:58.794Z,195.12
2018-01-26T20:27:27.592Z,187.50
2018-01-26T20:29:55.248Z,172.45
2018-01-26T20:32:23.183Z,171.62
2018-01-26T20:34:50.998Z,169.65
2018-01-26T20:37:18.719Z,170.15
2018-01-26T20:39:46.974Z,176.70
2018-01-26T20:42:15.941Z,184.73
2018-01-26T20:44:45.739Z,177.05
2018-01-26T20:47:16.077Z,169.75
2018-01-26T20:49:45.888Z,176.10
2018-01-26T20:52:15.692Z,178.30
2018-01-26T20:54:45.661Z,177.85
2018-01-26T20:57:15.261Z,174.65
2018-01-26T20:59:44.852Z,176.52
2018-01-26T21:02:12.990Z,177.23
2018-01-26T21:04:42.536Z,184.00
2018-01-26T21:07:12.373Z,177.62
2018-01-26T21:09:40.207Z,188.30
2018-01-26T21:12:08.409Z,192.40
2018-01-26T21:14:36.695Z,176.70
2018-01-26T21:17:04.532Z,179.12
2018-01-26T21:19:32.445Z,178.57
2018-01-26T21:22:00.115Z,179.52
2018-01-26T21:24:28.843Z,186.62
2018-01-26T21:26:56.468Z,181.43
2018-01-26T21:29:24.123Z,202.82
2018-01-26T21:31:52.022Z,196.32
2018-01-26T21:34:19.691Z,191.15
2018-01-26T21:36:47.488Z,185.85
2018-01-26T21:39:15.245Z,200.50
2018-01-26T21:41:42.823Z,201.80
2018-01-26T21:44:10.455Z,208.02
2018-01-26T21:46:38.545Z,219.77
2018-01-26T21:49:06.715Z,209.30
2018-01-26T21:51:34.342Z,203.82
2018-01-26T21:54:02.681Z,223.98
2018-01-26T21:56:30.327Z,232.05
2018-01-26T21:58:58.120Z,223.07
2018-01-26T22:01:25.818Z,206.75
2018-01-26T22:04:03.826Z,199.27
2018-01-26T22:06:37.243Z,204.23
2018-01-26T22:09:16.475Z,211.12
2018-01-26T22:11:49.328Z,204.43
2018-01-26T22:14:17.850Z,217.27
2018-01-26T22:16:45.806Z,214.95
2018-01-26T22:19:13.590Z,230.15
2018-01-26T22:21:41.855Z,221.15
2018-01-26T22:24:14.767Z,233.90
2018-01-26T22:26:44.980Z,236.02
2018-01-26T22:29:17.848Z,230.77
2018-01-26T22:31:46.649Z,218.63
2018-01-26T22:34:20.720Z,222.98
2018-01-26T22:39:36.049Z,222.93
2018-01-26T22:42:09.308Z,218.45
2018-01-26T22:47:48.739Z,209.95
2018-01-26T22:50:22.643Z,221.87
2018-01-26T22:52:52.357Z,223.55
2018-01-26T22:55:23.445Z,219.10
2018-01-26T23:00:54.673Z,239.70
2018-01-26T23:03:23.410Z,226.60
2018-01-26T23:12:25.751Z,245.57
2018-01-26T23:15:02.537Z,238.75
2018-01-26T23:17:43.736Z,247.55
2018-01-26T23:20:23.041Z,246.35
2018-01-26T23:25:36.771Z,267.90
2018-01-26T23:28:08.554Z,263.02
2018-01-26T23:30:39.063Z,268.73
2018-01-26T23:33:12.733Z,328.17
2018-01-26T23:35:54.888Z,342.48
2018-01-26T23:38:28.478Z,349.12
2018-01-26T23:41:03.738Z,379.02
2018-01-26T23:43:33.846Z,352.40
2018-01-26T23:46:02.636Z,360.45
2018-01-26T23:48:32.417Z,377.62
2018-01-26T23:51:00.827Z,349.40
2018-01-26T23:53:35.219Z,363.05
2018-01-26T23:56:05.136Z,368.55
2018-01-26T23:58:34.970Z,379.50
